createdAt,value
2017-12-24T00:00:14.378Z,19.25
2017-12-24T00:00:39.949Z,19.29
2017-12-24T00:01:05.507Z,19.28
2017-12-24T00:01:31.077Z,19.2
2017-12-24T00:01:56.650Z,19.24
2017-12-24T00:02:22.213Z,19.25
2017-12-24T00:02:47.776Z,19.25
2017-12-24T00:03:13.353Z,19.28
2017-12-24T00:03:38.912Z,19.28
2017-12-24T00:04:04.537Z,19.28
2017-12-24T00:04:30.105Z,19.24
2017-12-24T00:04:55.664Z,19.33
2017-12-24T00:05:21.245Z,19.2
2017-12-24T00:05:46.814Z,19.25
2017-12-24T00:06:12.402Z,19.28
2017-12-24T00:06:38.151Z,19.24
2017-12-24T00:07:03.712Z,19.23
2017-12-24T00:07:29.288Z,19.25
2017-12-24T00:07:54.835Z,19.24
2017-12-24T00:08:20.390Z,19.24
2017-12-24T00:08:45.957Z,19.25
2017-12-24T00:09:11.589Z,19.25
2017-12-24T00:09:37.106Z,19.31
2017-12-24T00:10:02.689Z,19.29
2017-12-24T00:10:28.234Z,19.23
2017-12-24T00:10:53.792Z,19.29
2017-12-24T00:11:19.367Z,19.33
2017-12-24T00:11:44.928Z,19.28
2017-12-24T00:12:10.483Z,19.31
2017-12-24T00:12:36.047Z,19.29
2017-12-24T00:13:01.728Z,19.23
2017-12-24T00:13:27.290Z,19.32
2017-12-24T00:13:52.874Z,19.28
2017-12-24T00:14:18.443Z,19.25
2017-12-24T00:14:44.074Z,19.25
2017-12-24T00:15:09.663Z,19.24
2017-12-24T00:15:35.230Z,19.33
2017-12-24T00:16:00.808Z,19.25
2017-12-24T00:16:26.377Z,19.25
2017-12-24T00:16:51.942Z,19.28
2017-12-24T00:17:17.497Z,19.29
2017-12-24T00:17:43.050Z,19.2
2017-12-24T00:18:08.681Z,19.29
2017-12-24T00:18:34.279Z,19.25
2017-12-24T00:18:59.850Z,19.24
2017-12-24T00:19:25.414Z,19.29
2017-12-24T00:19:51.078Z,19.24
2017-12-24T00:20:16.659Z,19.23
2017-12-24T00:20:42.225Z,19.24
2017-12-24T00:21:07.775Z,19.29
2017-12-24T00:21:33.350Z,19.28
2017-12-24T00:21:58.937Z,19.25
2017-12-24T00:22:24.514Z,19.28
2017-12-24T00:22:50.089Z,19.24
2017-12-24T00:23:15.644Z,19.25
2017-12-24T00:23:41.199Z,19.24
2017-12-24T00:24:06.801Z,19.28
2017-12-24T00:24:32.447Z,19.18
2017-12-24T00:24:58.012Z,19.23
2017-12-24T00:25:23.562Z,19.24
2017-12-24T00:25:49.131Z,19.23
2017-12-24T00:26:14.689Z,19.21
2017-12-24T00:26:40.253Z,19.33
2017-12-24T00:27:05.786Z,19.23
2017-12-24T00:27:31.346Z,19.24
2017-12-24T00:27:56.890Z,19.25
2017-12-24T00:28:22.447Z,19.24
2017-12-24T00:28:48.000Z,19.23
2017-12-24T00:29:13.563Z,19.24
2017-12-24T00:29:39.272Z,19.21
2017-12-24T00:30:04.893Z,19.21
2017-12-24T00:30:30.441Z,19.28
2017-12-24T00:30:56.029Z,19.24
2017-12-24T00:31:21.585Z,19.25
2017-12-24T00:31:47.130Z,19.25
2017-12-24T00:32:12.698Z,19.28
2017-12-24T00:33:16.659Z,19.28
2017-12-24T00:33:42.220Z,19.31
2017-12-24T00:34:07.885Z,19.25
2017-12-24T00:34:56.298Z,19.24
2017-12-24T00:35:21.973Z,19.25
2017-12-24T00:35:47.533Z,19.28
2017-12-24T00:36:13.073Z,19.25
2017-12-24T00:36:38.630Z,19.25
2017-12-24T00:37:04.187Z,19.23
2017-12-24T00:37:29.795Z,19.21
2017-12-24T00:37:55.397Z,19.25
2017-12-24T00:38:20.992Z,19.29
2017-12-24T00:38:46.561Z,19.2
2017-12-24T00:39:12.189Z,19.17
2017-12-24T00:39:37.743Z,19.2
2017-12-24T00:40:03.285Z,19.28
2017-12-24T00:40:28.881Z,19.21
2017-12-24T00:40:54.465Z,19.24
2017-12-24T00:41:20.060Z,19.28
2017-12-24T00:41:45.722Z,19.28
2017-12-24T00:42:11.307Z,19.23
2017-12-24T00:42:36.867Z,19.23
2017-12-24T00:43:02.481Z,19.24
2017-12-24T00:43:28.031Z,19.24
2017-12-24T00:43:53.576Z,19.2
2017-12-24T00:44:19.150Z,19.25
2017-12-24T00:44:44.837Z,19.2
2017-12-24T00:45:10.365Z,19.23
2017-12-24T00:45:35.926Z,19.25
2017-12-24T00:46:01.491Z,19.18
2017-12-24T00:46:27.037Z,19.23
2017-12-24T00:46:52.608Z,19.28
2017-12-24T00:47:18.177Z,19.25
2017-12-24T00:47:43.748Z,19.24
2017-12-24T00:48:09.315Z,19.23
2017-12-24T00:48:34.941Z,19.25
2017-12-24T00:49:00.501Z,19.21
2017-12-24T00:49:26.134Z,19.23
2017-12-24T00:49:51.706Z,19.23
2017-12-24T00:50:17.261Z,19.24
2017-12-24T00:50:42.816Z,19.18
2017-12-24T00:51:08.372Z,19.23
2017-12-24T00:51:33.941Z,19.23
2017-12-24T00:51:59.510Z,19.2
2017-12-24T00:52:25.052Z,19.23
2017-12-24T00:52:50.622Z,19.21
2017-12-24T00:53:16.192Z,19.21
2017-12-24T00:53:41.766Z,19.23
2017-12-24T00:54:07.327Z,19.21
2017-12-24T00:54:32.993Z,19.17
2017-12-24T00:54:58.590Z,19.23
2017-12-24T00:55:24.136Z,19.29
2017-12-24T00:55:49.753Z,19.2
2017-12-24T00:56:15.314Z,19.24
2017-12-24T00:57:03.941Z,19.14
2017-12-24T00:57:29.500Z,19.31
2017-12-24T00:58:17.792Z,19.23
2017-12-24T00:58:43.345Z,19.28
2017-12-24T00:59:08.918Z,19.2
2017-12-24T00:59:34.477Z,19.24
2017-12-24T01:00:00.049Z,19.24
2017-12-24T01:00:25.615Z,19.21
2017-12-24T01:00:51.234Z,19.21
2017-12-24T01:01:16.798Z,19.2
2017-12-24T01:01:42.397Z,19.24
2017-12-24T01:02:07.968Z,19.24
2017-12-24T01:02:33.594Z,19.21
2017-12-24T01:02:59.165Z,19.24
2017-12-24T01:03:24.707Z,19.17
2017-12-24T01:03:50.295Z,19.18
2017-12-24T01:04:15.853Z,19.24
2017-12-24T01:04:41.407Z,19.18
2017-12-24T01:05:06.980Z,19.25
2017-12-24T01:05:32.524Z,19.25
2017-12-24T01:05:58.089Z,19.23
2017-12-24T01:06:23.786Z,19.2
2017-12-24T01:06:49.354Z,19.21
2017-12-24T01:07:14.918Z,19.25
2017-12-24T01:07:40.524Z,19.23
2017-12-24T01:08:06.083Z,19.2
2017-12-24T01:08:31.684Z,19.23
2017-12-24T01:08:57.255Z,19.24
2017-12-24T01:09:22.828Z,19.2
2017-12-24T01:09:48.412Z,19.21
2017-12-24T01:10:13.995Z,19.13
2017-12-24T01:10:39.540Z,19.15
2017-12-24T01:11:05.094Z,19.17
2017-12-24T01:11:30.658Z,19.23
2017-12-24T01:11:56.260Z,19.21
2017-12-24T01:12:21.795Z,19.21
2017-12-24T01:12:47.397Z,19.13
2017-12-24T01:13:12.942Z,19.23
2017-12-24T01:13:38.518Z,19.2
2017-12-24T01:14:04.124Z,19.14
2017-12-24T01:14:29.659Z,19.17
2017-12-24T01:14:55.206Z,19.17
2017-12-24T01:15:20.843Z,19.15
2017-12-24T01:15:46.429Z,19.21
2017-12-24T01:16:11.991Z,19.18
2017-12-24T01:16:37.600Z,19.15
2017-12-24T01:17:03.161Z,19.18
2017-12-24T01:17:28.708Z,19.11
2017-12-24T01:17:54.300Z,19.14
2017-12-24T01:18:19.858Z,19.2
2017-12-24T01:18:45.400Z,19.23
2017-12-24T01:19:11.074Z,19.21
2017-12-24T01:19:36.710Z,19.2
2017-12-24T01:20:02.283Z,19.25
2017-12-24T01:20:27.868Z,19.18
2017-12-24T01:20:53.422Z,19.14
2017-12-24T01:21:18.986Z,19.1
2017-12-24T01:21:44.551Z,19.18
2017-12-24T01:22:10.123Z,19.18
2017-12-24T01:22:35.696Z,19.17
2017-12-24T01:23:01.258Z,19.11
2017-12-24T01:23:26.795Z,19.13
2017-12-24T01:23:52.336Z,19.23
2017-12-24T01:24:17.892Z,19.15
2017-12-24T01:24:43.463Z,19.13
2017-12-24T01:25:09.037Z,19.18
2017-12-24T01:25:34.718Z,19.15
2017-12-24T01:26:00.290Z,19.14
2017-12-24T01:26:25.850Z,19.13
2017-12-24T01:26:51.470Z,19.21
2017-12-24T01:27:17.076Z,19.23
2017-12-24T01:27:42.662Z,19.21
2017-12-24T01:28:08.231Z,19.21
2017-12-24T01:28:33.798Z,19.18
2017-12-24T01:28:59.374Z,19.21
2017-12-24T01:29:24.930Z,19.14
2017-12-24T01:30:23.823Z,19.21
2017-12-24T01:30:49.426Z,19.2
2017-12-24T01:31:14.940Z,19.15
2017-12-24T01:31:40.490Z,19.15
2017-12-24T01:32:06.038Z,19.11
2017-12-24T01:32:31.762Z,19.15
2017-12-24T01:32:57.332Z,19.17
2017-12-24T01:33:22.897Z,19.21
2017-12-24T01:33:48.546Z,19.11
2017-12-24T01:34:14.140Z,19.18
2017-12-24T01:34:39.681Z,19.11
2017-12-24T01:35:05.246Z,19.17
2017-12-24T01:35:30.804Z,19.17
2017-12-24T01:35:56.392Z,19.18
2017-12-24T01:36:21.954Z,19.15
2017-12-24T01:37:26.210Z,19.11
2017-12-24T01:37:51.773Z,19.11
2017-12-24T01:38:17.335Z,19.14
2017-12-24T01:38:42.969Z,19.15
2017-12-24T01:39:08.540Z,19.11
2017-12-24T01:39:34.098Z,19.18
2017-12-24T01:39:59.717Z,19.14
2017-12-24T01:40:25.267Z,19.06
2017-12-24T01:40:50.856Z,19.14
2017-12-24T01:41:16.433Z,19.1
2017-12-24T01:41:41.982Z,19.11
2017-12-24T01:42:07.565Z,19.21
2017-12-24T01:42:33.140Z,19.13
2017-12-24T01:42:58.694Z,19.14
2017-12-24T01:43:24.269Z,19.14
2017-12-24T01:43:49.913Z,19.2
2017-12-24T01:44:15.458Z,19.13
2017-12-24T01:44:41.034Z,19.1
2017-12-24T01:45:06.631Z,19.15
2017-12-24T01:45:32.246Z,19.13
2017-12-24T01:45:57.821Z,19.14
2017-12-24T01:46:23.361Z,19.1
2017-12-24T01:46:48.940Z,19.14
2017-12-24T01:47:14.534Z,19.11
2017-12-24T01:47:40.205Z,19.14
2017-12-24T01:48:05.760Z,19.08
2017-12-24T01:48:31.323Z,19.13
2017-12-24T01:48:56.876Z,19.1
2017-12-24T01:49:22.456Z,19.06
2017-12-24T01:49:48.013Z,19.08
2017-12-24T01:50:13.584Z,19.1
2017-12-24T01:50:39.140Z,19.11
2017-12-24T01:51:04.721Z,19.13
2017-12-24T01:51:30.278Z,19.08
2017-12-24T01:51:55.832Z,19.1
2017-12-24T01:52:21.394Z,19.1
2017-12-24T01:52:46.960Z,19.14
2017-12-24T01:53:12.543Z,19.11
2017-12-24T01:53:38.098Z,19.1
2017-12-24T01:54:03.736Z,19.08
2017-12-24T01:54:29.384Z,19.1
2017-12-24T01:54:54.946Z,19.06
2017-12-24T01:55:20.500Z,19.14
2017-12-24T01:55:46.070Z,19.13
2017-12-24T01:56:11.631Z,19.05
2017-12-24T01:56:37.167Z,19.17
2017-12-24T01:57:02.826Z,19.14
2017-12-24T01:57:28.405Z,19.13
2017-12-24T01:57:53.963Z,19.17
2017-12-24T01:58:19.608Z,19.1
2017-12-24T01:58:45.167Z,19.1
2017-12-24T01:59:10.747Z,19.08
2017-12-24T01:59:36.316Z,19.13
2017-12-24T02:00:01.910Z,19.08
2017-12-24T02:00:27.472Z,19.13
2017-12-24T02:00:53.042Z,19.1
2017-12-24T02:01:19.572Z,19.13
2017-12-24T02:01:45.281Z,19.11
2017-12-24T02:02:10.856Z,19.13
2017-12-24T02:02:36.441Z,19.1
2017-12-24T02:03:02.045Z,19.1
2017-12-24T02:03:27.689Z,19.14
2017-12-24T02:03:53.266Z,19.13
2017-12-24T02:04:18.830Z,19.13
2017-12-24T02:04:44.388Z,19.18
2017-12-24T02:05:09.962Z,19.06
2017-12-24T02:05:35.502Z,19.11
2017-12-24T02:06:01.190Z,19.08
2017-12-24T02:06:26.724Z,19.08
2017-12-24T02:06:52.342Z,19.1
2017-12-24T02:07:17.860Z,19.13
2017-12-24T02:07:43.401Z,19.15
2017-12-24T02:08:08.964Z,19.11
2017-12-24T02:08:34.637Z,19.14
2017-12-24T02:09:00.206Z,19.08
2017-12-24T02:09:25.784Z,19.1
2017-12-24T02:09:51.390Z,19.11
2017-12-24T02:10:16.990Z,19.15
2017-12-24T02:10:42.549Z,19.06
2017-12-24T02:11:08.093Z,19.1
2017-12-24T02:11:33.650Z,19.14
2017-12-24T02:11:59.205Z,19.1
2017-12-24T02:12:24.780Z,19.1
2017-12-24T02:12:50.355Z,19.11
2017-12-24T02:13:15.897Z,19.08
2017-12-24T02:13:41.561Z,19.14
2017-12-24T02:14:07.126Z,19.06
2017-12-24T02:14:32.677Z,19.11
2017-12-24T02:14:58.302Z,19.15
2017-12-24T02:15:23.884Z,19.08
2017-12-24T02:15:49.446Z,19.06
2017-12-24T02:16:15.003Z,19.06
2017-12-24T02:16:40.593Z,19.06
2017-12-24T02:17:06.142Z,19.13
2017-12-24T02:17:31.731Z,19.02
2017-12-24T02:17:57.309Z,19.05
2017-12-24T02:18:22.863Z,19.1
2017-12-24T02:18:48.391Z,19.08
2017-12-24T02:19:14.049Z,19.13
2017-12-24T02:19:39.606Z,19.13
2017-12-24T02:20:05.158Z,19.14
2017-12-24T02:20:30.726Z,19.13
2017-12-24T02:20:56.279Z,19.15
2017-12-24T02:21:21.836Z,19.13
2017-12-24T02:21:47.434Z,19.13
2017-12-24T02:22:12.972Z,19.15
2017-12-24T02:22:38.561Z,19.11
2017-12-24T02:23:04.161Z,19.14
2017-12-24T02:23:29.709Z,19.14
2017-12-24T02:23:55.306Z,19.13
2017-12-24T02:24:20.857Z,19.14
2017-12-24T02:24:46.399Z,19.11
2017-12-24T02:25:11.986Z,19.1
2017-12-24T02:25:37.562Z,19.14
2017-12-24T02:26:03.099Z,19.1
2017-12-24T02:26:28.647Z,19.01
2017-12-24T02:26:54.244Z,19.05
2017-12-24T02:27:19.791Z,19.11
2017-12-24T02:27:45.348Z,19.06
2017-12-24T02:28:10.904Z,19.05
2017-12-24T02:28:36.446Z,19.02
2017-12-24T02:29:02.002Z,19.01
2017-12-24T02:29:27.558Z,19.01
2017-12-24T02:29:53.111Z,19.06
2017-12-24T02:30:18.705Z,19.02
2017-12-24T02:30:44.266Z,19.02
2017-12-24T02:31:09.827Z,19.02
2017-12-24T02:31:35.399Z,19.01
2017-12-24T02:32:00.959Z,19.06
2017-12-24T02:32:26.531Z,19.02
2017-12-24T02:32:52.088Z,19.05
2017-12-24T02:33:17.628Z,19.01
2017-12-24T02:33:43.203Z,19.1
2017-12-24T02:34:08.756Z,19.05
2017-12-24T02:34:34.351Z,19.05
2017-12-24T02:34:59.907Z,19.08
2017-12-24T02:35:25.469Z,19.02
2017-12-24T02:35:51.031Z,19.06
2017-12-24T02:36:16.671Z,19.05
2017-12-24T02:36:42.306Z,18.98
2017-12-24T02:37:07.873Z,19.08
2017-12-24T02:37:33.430Z,19.08
2017-12-24T02:37:59.024Z,19.05
2017-12-24T02:38:24.583Z,19.1
2017-12-24T02:38:50.187Z,18.99
2017-12-24T02:39:15.855Z,19.05
2017-12-24T02:39:41.461Z,19.08
2017-12-24T02:40:07.011Z,19.01
2017-12-24T02:40:32.562Z,19.05
2017-12-24T02:40:58.119Z,19.05
2017-12-24T02:41:23.726Z,19.01
2017-12-24T02:41:49.304Z,19.05
2017-12-24T02:42:14.937Z,19.05
2017-12-24T02:42:40.469Z,19.05
2017-12-24T02:43:06.025Z,19.14
2017-12-24T02:43:31.582Z,18.99
2017-12-24T02:43:57.150Z,19.02
2017-12-24T02:44:22.712Z,19.06
2017-12-24T02:44:48.288Z,19.01
2017-12-24T02:45:13.847Z,19.01
2017-12-24T02:45:39.446Z,19.1
2017-12-24T02:46:05.014Z,18.99
2017-12-24T02:46:30.582Z,19.08
2017-12-24T02:46:56.166Z,19.08
2017-12-24T02:47:21.710Z,19.01
2017-12-24T02:47:47.241Z,18.97
2017-12-24T02:48:12.857Z,18.99
2017-12-24T02:48:38.399Z,18.99
2017-12-24T02:49:03.994Z,19.01
2017-12-24T02:49:29.609Z,19.06
2017-12-24T02:49:55.174Z,19.06
2017-12-24T02:50:20.767Z,18.98
2017-12-24T02:50:46.359Z,19.05
2017-12-24T02:51:12.001Z,18.98
2017-12-24T02:51:37.569Z,19.06
2017-12-24T02:52:03.137Z,19.06
2017-12-24T02:52:28.688Z,18.95
2017-12-24T02:52:54.246Z,19.05
2017-12-24T02:53:19.820Z,19.05
2017-12-24T02:53:45.438Z,18.97
2017-12-24T02:54:11.009Z,19.06
2017-12-24T02:54:36.568Z,19.02
2017-12-24T02:55:02.120Z,18.97
2017-12-24T02:55:27.662Z,18.95
2017-12-24T02:55:53.230Z,18.98
2017-12-24T02:56:18.821Z,18.97
2017-12-24T02:56:44.408Z,19.06
2017-12-24T02:57:09.982Z,18.97
2017-12-24T02:57:35.583Z,19.02
2017-12-24T02:58:01.114Z,18.95
2017-12-24T02:58:26.670Z,18.95
2017-12-24T02:58:52.233Z,18.98
2017-12-24T02:59:17.797Z,18.97
2017-12-24T02:59:43.405Z,18.94
2017-12-24T03:00:08.960Z,19.01
2017-12-24T03:00:34.529Z,18.95
2017-12-24T03:01:00.119Z,18.94
2017-12-24T03:01:25.779Z,18.98
2017-12-24T03:01:51.331Z,18.94
2017-12-24T03:02:16.909Z,18.95
2017-12-24T03:02:42.484Z,18.95
2017-12-24T03:03:08.043Z,18.99
2017-12-24T03:03:33.608Z,19.01
2017-12-24T03:03:59.334Z,19.01
2017-12-24T03:04:24.975Z,18.97
2017-12-24T03:04:50.527Z,18.92
2017-12-24T03:05:16.099Z,18.91
2017-12-24T03:05:41.643Z,18.98
2017-12-24T03:06:07.213Z,18.94
2017-12-24T03:06:32.771Z,18.97
2017-12-24T03:06:58.336Z,18.97
2017-12-24T03:07:23.897Z,18.98
2017-12-24T03:07:49.490Z,18.98
2017-12-24T03:08:15.060Z,18.98
2017-12-24T03:08:41.291Z,18.98
2017-12-24T03:09:06.877Z,18.9
2017-12-24T03:09:32.433Z,18.98
2017-12-24T03:09:57.975Z,18.94
2017-12-24T03:10:23.625Z,19.01
2017-12-24T03:10:49.271Z,18.97
2017-12-24T03:11:14.855Z,18.92
2017-12-24T03:11:40.417Z,18.98
2017-12-24T03:12:06.036Z,18.99
2017-12-24T03:12:31.645Z,18.99
2017-12-24T03:12:57.207Z,18.92
2017-12-24T03:13:22.762Z,18.94
2017-12-24T03:13:48.406Z,18.99
2017-12-24T03:14:13.953Z,18.95
2017-12-24T03:14:39.534Z,18.92
2017-12-24T03:15:05.140Z,18.95
2017-12-24T03:15:30.697Z,18.99
2017-12-24T03:15:56.272Z,18.95
2017-12-24T03:16:21.824Z,18.99
2017-12-24T03:16:47.395Z,18.98
2017-12-24T03:17:13.008Z,18.97
2017-12-24T03:17:38.575Z,18.95
2017-12-24T03:18:04.122Z,18.98
2017-12-24T03:18:29.692Z,18.97
2017-12-24T03:18:55.287Z,18.97
2017-12-24T03:19:20.835Z,18.94
2017-12-24T03:19:46.384Z,18.95
2017-12-24T03:20:11.976Z,18.98
2017-12-24T03:20:37.573Z,18.91
2017-12-24T03:21:03.123Z,18.92
2017-12-24T03:21:28.698Z,18.99
2017-12-24T03:21:54.245Z,18.95
2017-12-24T03:22:19.893Z,18.94
2017-12-24T03:22:45.544Z,18.91
2017-12-24T03:23:11.138Z,18.99
2017-12-24T03:23:36.684Z,18.92
2017-12-24T03:24:02.236Z,18.94
2017-12-24T03:24:27.800Z,18.98
2017-12-24T03:24:53.368Z,18.97
2017-12-24T03:25:18.979Z,18.97
2017-12-24T03:25:44.536Z,18.95
2017-12-24T03:26:10.089Z,18.99
2017-12-24T03:26:35.647Z,18.95
2017-12-24T03:27:01.346Z,18.94
2017-12-24T03:27:26.917Z,18.95
2017-12-24T03:27:52.470Z,18.92
2017-12-24T03:28:18.043Z,18.99
2017-12-24T03:28:43.586Z,18.94
2017-12-24T03:29:09.159Z,18.92
2017-12-24T03:29:34.748Z,18.91
2017-12-24T03:30:00.303Z,18.94
2017-12-24T03:30:25.906Z,18.9
2017-12-24T03:30:51.513Z,18.94
2017-12-24T03:31:17.079Z,18.94
2017-12-24T03:31:42.637Z,18.92
2017-12-24T03:32:08.246Z,18.87
2017-12-24T03:32:33.822Z,18.91
2017-12-24T03:32:59.395Z,18.94
2017-12-24T03:33:24.997Z,18.95
2017-12-24T03:33:50.544Z,18.87
2017-12-24T03:34:16.111Z,18.94
2017-12-24T03:34:41.721Z,18.91
2017-12-24T03:35:07.289Z,18.92
2017-12-24T03:35:32.894Z,18.91
2017-12-24T03:35:58.433Z,18.95
2017-12-24T03:36:23.994Z,18.94
2017-12-24T03:36:49.562Z,18.91
2017-12-24T03:37:15.236Z,18.97
2017-12-24T03:37:40.811Z,18.87
2017-12-24T03:38:06.398Z,18.87
2017-12-24T03:38:31.945Z,18.91
2017-12-24T03:38:57.479Z,18.94
2017-12-24T03:39:23.048Z,18.91
2017-12-24T03:40:17.110Z,18.92
2017-12-24T03:40:42.776Z,18.94
2017-12-24T03:41:08.354Z,18.94
2017-12-24T03:41:33.928Z,18.91
2017-12-24T03:41:59.665Z,18.91
2017-12-24T03:42:25.186Z,18.91
2017-12-24T03:42:50.738Z,18.94
2017-12-24T03:43:16.306Z,18.94
2017-12-24T03:43:41.863Z,18.94
2017-12-24T03:44:07.427Z,18.91
2017-12-24T03:44:32.970Z,18.91
2017-12-24T03:44:58.675Z,18.97
2017-12-24T03:45:24.228Z,18.94
2017-12-24T03:45:49.774Z,18.92
2017-12-24T03:46:15.421Z,18.9
2017-12-24T03:46:40.975Z,18.97
2017-12-24T03:47:06.549Z,18.97
2017-12-24T03:47:32.129Z,18.98
2017-12-24T03:47:57.708Z,18.97
2017-12-24T03:48:23.277Z,18.9
2017-12-24T03:48:48.834Z,18.95
2017-12-24T03:49:14.406Z,18.92
2017-12-24T03:49:40.019Z,18.87
2017-12-24T03:50:05.644Z,18.92
2017-12-24T03:50:31.195Z,18.92
2017-12-24T03:50:56.752Z,18.98
2017-12-24T03:51:22.319Z,18.97
2017-12-24T03:51:47.848Z,18.86
2017-12-24T03:52:13.405Z,18.9
2017-12-24T03:52:38.969Z,18.95
2017-12-24T03:53:04.550Z,18.9
2017-12-24T03:53:30.122Z,18.97
2017-12-24T03:53:55.669Z,18.9
2017-12-24T03:54:21.255Z,18.91
2017-12-24T03:54:46.834Z,18.92
2017-12-24T03:55:12.467Z,18.84
2017-12-24T03:55:38.116Z,18.91
2017-12-24T03:56:03.702Z,18.94
2017-12-24T03:56:29.244Z,18.97
2017-12-24T03:56:54.844Z,18.86
2017-12-24T03:57:20.405Z,18.9
2017-12-24T03:57:46.005Z,18.95
2017-12-24T03:58:11.661Z,18.9
2017-12-24T03:58:37.178Z,18.9
2017-12-24T03:59:02.738Z,18.91
2017-12-24T03:59:28.300Z,18.87
2017-12-24T03:59:54.001Z,18.91
2017-12-24T04:00:19.542Z,18.9
2017-12-24T04:00:45.130Z,18.91
2017-12-24T04:01:10.680Z,18.83
2017-12-24T04:01:36.237Z,18.9
2017-12-24T04:02:01.794Z,18.83
2017-12-24T04:02:27.344Z,18.83
2017-12-24T04:02:52.957Z,18.91
2017-12-24T04:03:18.530Z,18.9
2017-12-24T04:03:44.095Z,18.91
2017-12-24T04:04:09.661Z,18.91
2017-12-24T04:04:35.351Z,18.84
2017-12-24T04:05:00.905Z,18.87
2017-12-24T04:05:26.458Z,18.9
2017-12-24T04:05:52.020Z,18.87
2017-12-24T04:06:17.646Z,18.92
2017-12-24T04:06:43.209Z,18.92
2017-12-24T04:07:08.789Z,18.9
2017-12-24T04:07:34.381Z,18.9
2017-12-24T04:07:59.938Z,18.9
2017-12-24T04:08:25.510Z,18.87
2017-12-24T04:08:51.086Z,18.87
2017-12-24T04:09:16.639Z,18.86
2017-12-24T04:09:42.199Z,18.86
2017-12-24T04:10:07.903Z,18.9
2017-12-24T04:10:33.446Z,18.86
2017-12-24T04:10:59.006Z,18.87
2017-12-24T04:11:24.610Z,18.87
2017-12-24T04:11:50.169Z,18.9
2017-12-24T04:12:15.743Z,18.9
2017-12-24T04:12:41.346Z,18.9
2017-12-24T04:13:06.911Z,18.84
2017-12-24T04:13:32.471Z,18.84
2017-12-24T04:13:58.034Z,18.86
2017-12-24T04:14:23.596Z,18.9
2017-12-24T04:14:49.662Z,18.82
2017-12-24T04:15:15.238Z,18.9
2017-12-24T04:15:40.778Z,18.87
2017-12-24T04:16:06.327Z,18.86
2017-12-24T04:16:31.903Z,18.9
2017-12-24T04:16:57.457Z,18.84
2017-12-24T04:17:23.012Z,18.9
2017-12-24T04:17:48.555Z,18.86
2017-12-24T04:18:14.105Z,18.86
2017-12-24T04:18:39.786Z,18.84
2017-12-24T04:19:05.386Z,18.83
2017-12-24T04:19:30.942Z,18.84
2017-12-24T04:19:56.509Z,18.94
2017-12-24T04:20:22.072Z,18.86
2017-12-24T04:20:47.615Z,18.83
2017-12-24T04:21:13.230Z,18.94
2017-12-24T04:21:38.790Z,18.84
2017-12-24T04:22:04.358Z,18.92
2017-12-24T04:22:29.952Z,18.94
2017-12-24T04:22:55.510Z,18.86
2017-12-24T04:23:21.078Z,18.94
2017-12-24T04:23:46.669Z,18.92
2017-12-24T04:24:12.222Z,18.94
2017-12-24T04:24:37.798Z,18.94
2017-12-24T04:25:03.349Z,18.9
2017-12-24T04:25:28.900Z,18.83
2017-12-24T04:25:54.456Z,18.92
2017-12-24T04:26:20.156Z,18.92
2017-12-24T04:26:45.721Z,18.92
2017-12-24T04:27:11.286Z,18.91
2017-12-24T04:27:36.872Z,18.84
2017-12-24T04:28:02.502Z,18.92
2017-12-24T04:28:28.040Z,18.91
2017-12-24T04:28:53.600Z,18.87
2017-12-24T04:29:19.264Z,18.84
2017-12-24T04:29:44.814Z,18.86
2017-12-24T04:30:10.371Z,18.84
2017-12-24T04:30:35.907Z,18.83
2017-12-24T04:31:01.474Z,18.9
2017-12-24T04:31:27.103Z,18.84
2017-12-24T04:31:52.758Z,18.84
2017-12-24T04:32:18.298Z,18.84
2017-12-24T04:32:43.867Z,18.84
2017-12-24T04:33:09.424Z,18.84
2017-12-24T04:33:34.982Z,18.91
2017-12-24T04:34:00.544Z,18.84
2017-12-24T04:34:26.103Z,18.86
2017-12-24T04:34:51.658Z,18.92
2017-12-24T04:35:17.214Z,18.9
2017-12-24T04:35:42.772Z,18.87
2017-12-24T04:36:08.339Z,18.87
2017-12-24T04:36:33.897Z,18.9
2017-12-24T04:36:59.480Z,18.9
2017-12-24T04:37:25.028Z,18.86
2017-12-24T04:37:50.575Z,18.95
2017-12-24T04:38:16.143Z,18.84
2017-12-24T04:38:41.716Z,18.92
2017-12-24T04:39:07.376Z,18.97
2017-12-24T04:39:32.921Z,18.94
2017-12-24T04:39:58.479Z,18.91
2017-12-24T04:40:24.091Z,18.97
2017-12-24T04:40:49.691Z,18.97
2017-12-24T04:41:15.246Z,18.95
2017-12-24T04:41:40.797Z,18.87
2017-12-24T04:42:06.377Z,18.98
2017-12-24T04:42:31.936Z,18.98
2017-12-24T04:42:57.546Z,18.86
2017-12-24T04:43:23.075Z,18.92
2017-12-24T04:43:48.637Z,18.92
2017-12-24T04:44:14.209Z,18.94
2017-12-24T04:44:39.787Z,18.92
2017-12-24T04:45:05.386Z,18.86
2017-12-24T04:45:30.906Z,18.95
2017-12-24T04:45:56.460Z,18.9
2017-12-24T04:46:22.019Z,18.95
2017-12-24T04:46:47.586Z,18.97
2017-12-24T04:47:13.138Z,18.95
2017-12-24T04:47:38.708Z,18.98
2017-12-24T04:48:04.283Z,18.97
2017-12-24T04:48:29.857Z,18.94
2017-12-24T04:48:55.415Z,18.99
2017-12-24T04:49:20.979Z,18.99
2017-12-24T04:49:46.566Z,18.9
2017-12-24T04:50:12.123Z,18.97
2017-12-24T04:50:37.749Z,18.97
2017-12-24T04:51:03.284Z,18.9
2017-12-24T04:51:28.834Z,19.01
2017-12-24T04:51:54.390Z,18.94
2017-12-24T04:52:19.980Z,19.06
2017-12-24T04:52:45.536Z,18.94
2017-12-24T04:53:11.142Z,19.02
2017-12-24T04:53:36.692Z,19.02
2017-12-24T04:54:02.258Z,19.06
2017-12-24T04:54:27.853Z,18.98
2017-12-24T04:54:53.420Z,19.05
2017-12-24T04:55:18.991Z,19.11
2017-12-24T04:55:44.623Z,19.01
2017-12-24T04:56:10.253Z,19.08
2017-12-24T04:56:35.818Z,19.08
2017-12-24T04:57:01.393Z,19.1
2017-12-24T04:57:26.958Z,19.14
2017-12-24T04:57:52.523Z,19.11
2017-12-24T04:58:18.118Z,19.06
2017-12-24T04:58:43.715Z,19.06
2017-12-24T04:59:09.277Z,19.14
2017-12-24T04:59:34.845Z,19.15
2017-12-24T05:00:00.449Z,19.14
2017-12-24T05:00:26.021Z,19.13
2017-12-24T05:00:51.617Z,19.13
2017-12-24T05:01:17.191Z,19.14
2017-12-24T05:01:42.757Z,19.14
2017-12-24T05:02:08.305Z,19.13
2017-12-24T05:02:33.866Z,19.17
2017-12-24T05:02:59.432Z,19.15
2017-12-24T05:03:24.993Z,19.11
2017-12-24T05:03:50.640Z,19.17
2017-12-24T05:04:16.190Z,19.21
2017-12-24T05:04:41.751Z,19.18
2017-12-24T05:05:07.347Z,19.08
2017-12-24T05:05:32.914Z,19.11
2017-12-24T05:05:58.455Z,19.11
2017-12-24T05:06:24.115Z,19.21
2017-12-24T05:06:49.671Z,19.18
2017-12-24T05:07:15.222Z,19.15
2017-12-24T05:07:40.768Z,19.23
2017-12-24T05:08:06.358Z,19.21
2017-12-24T05:08:31.935Z,19.17
2017-12-24T05:08:57.540Z,19.15
2017-12-24T05:09:23.193Z,19.18
2017-12-24T05:09:48.758Z,19.21
2017-12-24T05:10:14.350Z,19.25
2017-12-24T05:10:39.897Z,19.18
2017-12-24T05:11:05.455Z,19.25
2017-12-24T05:11:30.998Z,19.18
2017-12-24T05:11:56.644Z,19.23
2017-12-24T05:12:22.200Z,19.2
2017-12-24T05:12:47.796Z,19.21
2017-12-24T05:13:13.365Z,19.21
2017-12-24T05:13:38.915Z,19.21
2017-12-24T05:14:04.472Z,19.29
2017-12-24T05:14:30.021Z,19.25
2017-12-24T05:14:55.595Z,19.21
2017-12-24T05:15:21.146Z,19.23
2017-12-24T05:15:46.694Z,19.18
2017-12-24T05:16:12.254Z,19.24
2017-12-24T05:16:37.819Z,19.2
2017-12-24T05:17:03.369Z,19.21
2017-12-24T05:17:28.925Z,19.23
2017-12-24T05:17:54.586Z,19.21
2017-12-24T05:18:20.142Z,19.23
2017-12-24T05:18:45.715Z,19.25
2017-12-24T05:19:11.274Z,19.2
2017-12-24T05:19:36.942Z,19.28
2017-12-24T05:20:02.522Z,19.31
2017-12-24T05:20:28.063Z,19.24
2017-12-24T05:21:16.756Z,19.21
2017-12-24T05:21:42.314Z,19.23
2017-12-24T05:22:07.898Z,19.2
2017-12-24T05:22:33.464Z,19.2
2017-12-24T05:22:59.006Z,19.31
2017-12-24T05:23:24.751Z,19.24
2017-12-24T05:23:50.493Z,19.21
2017-12-24T05:24:16.029Z,19.28
2017-12-24T05:24:41.638Z,19.23
2017-12-24T05:25:07.165Z,19.23
2017-12-24T05:25:32.808Z,19.32
2017-12-24T05:25:58.390Z,19.25
2017-12-24T05:26:23.978Z,19.23
2017-12-24T05:26:49.532Z,19.23
2017-12-24T05:27:15.090Z,19.21
2017-12-24T05:27:40.660Z,19.23
2017-12-24T05:28:06.258Z,19.23
2017-12-24T05:28:31.815Z,19.2
2017-12-24T05:28:57.422Z,19.21
2017-12-24T05:29:22.977Z,19.25
2017-12-24T05:29:48.530Z,19.28
2017-12-24T05:30:14.111Z,19.29
2017-12-24T05:30:39.783Z,19.25
2017-12-24T05:31:05.318Z,19.24
2017-12-24T05:31:30.860Z,19.24
2017-12-24T05:31:56.451Z,19.23
2017-12-24T05:32:22.023Z,19.29
2017-12-24T05:32:47.577Z,19.24
2017-12-24T05:33:13.126Z,19.28
2017-12-24T05:33:38.694Z,19.28
2017-12-24T05:34:04.245Z,19.23
2017-12-24T05:34:29.792Z,19.21